sensor_id;sensor_type;location;lat;lon;timestamp;pressure;altitude;pressure_sealevel;temperature;humidity
16461;BME280;8341;42.048;24.650;2024-03-02T00:01:29;96880.78;;;8.19;100.00
16461;BME280;8341;42.048;24.650;2024-03-02T00:03:56;96882.34;;;8.11;100.00
16461;BME280;8341;42.048;24.650;2024-03-02T00:06:23;96888.13;;;8.28;100.00
16461;BME280;8341;42.048;24.650;2024-03-02T00:08:50;96875.03;;;8.27;100.00
16461;BME280;8341;42.048;24.650;2024-03-02T00:11:18;96870.25;;;8.36;100.00
16461;BME280;8341;42.048;24.650;2024-03-02T00:13:45;96878.91;;;8.49;100.00
16461;BME280;8341;42.048;24.650;2024-03-02T00:16:12;96865.09;;;8.38;100.00
16461;BME280;8341;42.048;24.650;2024-03-02T00:18:42;96865.31;;;8.49;100.00
16461;BME280;8341;42.048;24.650;2024-03-02T00:21:10;96867.78;;;8.62;100.00
16461;BME280;8341;42.048;24.650;2024-03-02T00:23:37;96874.06;;;8.30;100.00
16461;BME280;8341;42.048;24.650;2024-03-02T00:26:04;96878.16;;;8.25;100.00
16461;BME280;8341;42.048;24.650;2024-03-02T00:28:35;96868.03;;;8.11;100.00
16461;BME280;8341;42.048;24.650;2024-03-02T00:31:04;96868.91;;;7.93;100.00
16461;BME280;8341;42.048;24.650;2024-03-02T00:33:32;96873.19;;;7.85;100.00
16461;BME280;8341;42.048;24.650;2024-03-02T00:36:01;96867.28;;;8.10;100.00
16461;BME280;8341;42.048;24.650;2024-03-02T00:38:30;96863.75;;;8.19;100.00
16461;BME280;8341;42.048;24.650;2024-03-02T00:40:58;96863.28;;;8.20;100.00
16461;BME280;8341;42.048;24.650;2024-03-02T00:43:42;96853.31;;;8.27;100.00
16461;BME280;8341;42.048;24.650;2024-03-02T00:46:11;96843.13;;;8.12;100.00
16461;BME280;8341;42.048;24.650;2024-03-02T00:48:39;96847.00;;;7.97;100.00
16461;BME280;8341;42.048;24.650;2024-03-02T00:51:09;96847.25;;;7.84;100.00
16461;BME280;8341;42.048;24.650;2024-03-02T00:53:37;96841.28;;;7.71;100.00
16461;BME280;8341;42.048;24.650;2024-03-02T00:56:04;96832.31;;;7.65;100.00
16461;BME280;8341;42.048;24.650;2024-03-02T00:58:35;96834.59;;;7.57;100.00
16461;BME280;8341;42.048;24.650;2024-03-02T01:01:02;96834.66;;;7.72;100.00
16461;BME280;8341;42.048;24.650;2024-03-02T01:03:31;96833.22;;;7.62;100.00
16461;BME280;8341;42.048;24.650;2024-03-02T01:05:58;96829.63;;;7.56;100.00
16461;BME280;8341;42.048;24.650;2024-03-02T01:08:27;96819.88;;;7.49;100.00
16461;BME280;8341;42.048;24.650;2024-03-02T01:10:54;96822.19;;;7.42;100.00
16461;BME280;8341;42.048;24.650;2024-03-02T01:13:21;96815.59;;;7.34;100.00
16461;BME280;8341;42.048;24.650;2024-03-02T01:15:49;96817.06;;;7.44;100.00
16461;BME280;8341;42.048;24.650;2024-03-02T01:18:16;96812.31;;;7.53;100.00
16461;BME280;8341;42.048;24.650;2024-03-02T01:20:42;96808.78;;;7.38;100.00
16461;BME280;8341;42.048;24.650;2024-03-02T01:23:09;96805.13;;;7.18;100.00
16461;BME280;8341;42.048;24.650;2024-03-02T01:25:37;96802.47;;;7.09;100.00
16461;BME280;8341;42.048;24.650;2024-03-02T01:28:05;96811.19;;;7.13;100.00
16461;BME280;8341;42.048;24.650;2024-03-02T01:30:32;96808.47;;;7.13;100.00
16461;BME280;8341;42.048;24.650;2024-03-02T01:32:59;96801.84;;;7.14;100.00
16461;BME280;8341;42.048;24.650;2024-03-02T01:35:27;96785.34;;;7.03;100.00
16461;BME280;8341;42.048;24.650;2024-03-02T01:37:54;96808.88;;;7.20;100.00
16461;BME280;8341;42.048;24.650;2024-03-02T01:40:21;96801.03;;;7.22;100.00
16461;BME280;8341;42.048;24.650;2024-03-02T01:42:53;96800.59;;;7.24;100.00
16461;BME280;8341;42.048;24.650;2024-03-02T01:45:21;96804.09;;;7.15;100.00
16461;BME280;8341;42.048;24.650;2024-03-02T01:47:48;96810.97;;;7.25;100.00
16461;BME280;8341;42.048;24.650;2024-03-02T01:50:16;96806.38;;;7.08;100.00
16461;BME280;8341;42.048;24.650;2024-03-02T01:52:51;96801.72;;;7.08;100.00
16461;BME280;8341;42.048;24.650;2024-03-02T01:55:19;96796.38;;;7.23;100.00
16461;BME280;8341;42.048;24.650;2024-03-02T01:57:46;96806.22;;;7.44;100.00
16461;BME280;8341;42.048;24.650;2024-03-02T02:00:15;96812.59;;;7.55;100.00
16461;BME280;8341;42.048;24.650;2024-03-02T02:02:43;96810.00;;;7.61;100.00
16461;BME280;8341;42.048;24.650;2024-03-02T02:05:10;96804.34;;;7.74;100.00
16461;BME280;8341;42.048;24.650;2024-03-02T02:07:37;96799.59;;;7.83;100.00
16461;BME280;8341;42.048;24.650;2024-03-02T02:10:04;96800.00;;;7.91;100.00
16461;BME280;8341;42.048;24.650;2024-03-02T02:12:32;96794.00;;;8.01;100.00
16461;BME280;8341;42.048;24.650;2024-03-02T02:14:59;96793.09;;;8.04;100.00
16461;BME280;8341;42.048;24.650;2024-03-02T02:17:27;96794.81;;;8.16;100.00
16461;BME280;8341;42.048;24.650;2024-03-02T02:19:54;96790.22;;;8.23;100.00
16461;BME280;8341;42.048;24.650;2024-03-02T02:22:23;96780.03;;;8.32;100.00
16461;BME280;8341;42.048;24.650;2024-03-02T02:24:50;96795.88;;;8.34;100.00
16461;BME280;8341;42.048;24.650;2024-03-02T02:27:17;96789.31;;;8.40;100.00
16461;BME280;8341;42.048;24.650;2024-03-02T02:29:43;96795.50;;;8.41;100.00
16461;BME280;8341;42.048;24.650;2024-03-02T02:32:10;96788.66;;;8.45;100.00
16461;BME280;8341;42.048;24.650;2024-03-02T02:34:37;96800.19;;;8.40;100.00
16461;BME280;8341;42.048;24.650;2024-03-02T02:37:04;96797.28;;;8.44;100.00
16461;BME280;8341;42.048;24.650;2024-03-02T02:39:33;96790.00;;;8.50;100.00
16461;BME280;8341;42.048;24.650;2024-03-02T02:42:00;96793.75;;;8.52;100.00
16461;BME280;8341;42.048;24.650;2024-03-02T02:44:28;96791.66;;;8.62;100.00
16461;BME280;8341;42.048;24.650;2024-03-02T02:46:55;96796.19;;;8.65;100.00
16461;BME280;8341;42.048;24.650;2024-03-02T02:49:22;96793.25;;;8.68;100.00
16461;BME280;8341;42.048;24.650;2024-03-02T02:51:49;96782.59;;;8.65;100.00
16461;BME280;8341;42.048;24.650;2024-03-02T02:54:16;96782.41;;;8.54;100.00
16461;BME280;8341;42.048;24.650;2024-03-02T02:56:45;96792.88;;;8.61;100.00
16461;BME280;8341;42.048;24.650;2024-03-02T02:59:12;96782.28;;;8.63;100.00
16461;BME280;8341;42.048;24.650;2024-03-02T03:01:39;96784.16;;;8.28;100.00
16461;BME280;8341;42.048;24.650;2024-03-02T03:04:05;96788.66;;;8.45;100.00
16461;BME280;8341;42.048;24.650;2024-03-02T03:06:32;96792.88;;;8.32;100.00
16461;BME280;8341;42.048;24.650;2024-03-02T03:08:59;96790.56;;;8.39;100.00
16461;BME280;8341;42.048;24.650;2024-03-02T03:11:26;96789.69;;;8.48;100.00
16461;BME280;8341;42.048;24.650;2024-03-02T03:13:55;96793.00;;;8.52;100.00
16461;BME280;8341;42.048;24.650;2024-03-02T03:16:22;96792.22;;;8.51;100.00
16461;BME280;8341;42.048;24.650;2024-03-02T03:18:49;96795.06;;;8.57;100.00
16461;BME280;8341;42.048;24.650;2024-03-02T03:21:17;96794.66;;;8.64;100.00
16461;BME280;8341;42.048;24.650;2024-03-02T03:23:44;96784.34;;;8.53;100.00
16461;BME280;8341;42.048;24.650;2024-03-02T03:26:11;96783.41;;;8.56;100.00
16461;BME280;8341;42.048;24.650;2024-03-02T03:28:38;96793.00;;;8.52;100.00
16461;BME280;8341;42.048;24.650;2024-03-02T03:31:06;96789.34;;;8.55;100.00
16461;BME280;8341;42.048;24.650;2024-03-02T03:33:33;96791.31;;;8.54;100.00
16461;BME280;8341;42.048;24.650;2024-03-02T03:36:01;96786.50;;;8.64;100.00
16461;BME280;8341;42.048;24.650;2024-03-02T03:38:28;96788.28;;;8.67;100.00
16461;BME280;8341;42.048;24.650;2024-03-02T03:40:56;96783.41;;;8.71;100.00
16461;BME280;8341;42.048;24.650;2024-03-02T03:43:22;96784.34;;;8.68;100.00
16461;BME280;8341;42.048;24.650;2024-03-02T03:45:49;96782.00;;;8.75;100.00
16461;BME280;8341;42.048;24.650;2024-03-02T03:48:18;96777.03;;;8.74;100.00
16461;BME280;8341;42.048;24.650;2024-03-02T03:50:45;96776.28;;;8.73;100.00
16461;BME280;8341;42.048;24.650;2024-03-02T03:53:12;96782.28;;;8.77;100.00
16461;BME280;8341;42.048;24.650;2024-03-02T03:55:40;96786.03;;;8.80;100.00
16461;BME280;8341;42.048;24.650;2024-03-02T03:58:07;96786.78;;;8.80;100.00
16461;BME280;8341;42.048;24.650;2024-03-02T04:00:34;96779.47;;;8.72;100.00
16461;BME280;8341;42.048;24.650;2024-03-02T04:03:01;96784.72;;;8.75;100.00
16461;BME280;8341;42.048;24.650;2024-03-02T04:05:29;96781.06;;;8.78;100.00
16461;BME280;8341;42.048;24.650;2024-03-02T04:07:56;96782.47;;;8.74;100.00
16461;BME280;8341;42.048;24.650;2024-03-02T04:10:23;96770.88;;;8.59;100.00
16461;BME280;8341;42.048;24.650;2024-03-02T04:12:50;96788.28;;;8.67;100.00
16461;BME280;8341;42.048;24.650;2024-03-02T04:15:17;96782.13;;;8.52;100.00
16461;BME280;8341;42.048;24.650;2024-03-02T04:17:45;96782.78;;;8.47;100.00
16461;BME280;8341;42.048;24.650;2024-03-02T04:20:12;96786.63;;;8.55;100.00
16461;BME280;8341;42.048;24.650;2024-03-02T04:22:40;96780.22;;;8.58;100.00
16461;BME280;8341;42.048;24.650;2024-03-02T04:25:08;96785.03;;;8.34;100.00
16461;BME280;8341;42.048;24.650;2024-03-02T04:27:35;96790.34;;;8.28;100.00
16461;BME280;8341;42.048;24.650;2024-03-02T04:30:03;96795.38;;;8.20;100.00
16461;BME280;8341;42.048;24.650;2024-03-02T04:32:31;96787.28;;;7.97;100.00
16461;BME280;8341;42.048;24.650;2024-03-02T04:34:58;96803.00;;;7.93;100.00
16461;BME280;8341;42.048;24.650;2024-03-02T04:37:25;96795.03;;;7.89;100.00
16461;BME280;8341;42.048;24.650;2024-03-02T04:39:53;96785.97;;;8.07;100.00
16461;BME280;8341;42.048;24.650;2024-03-02T04:42:20;96792.38;;;8.18;100.00
16461;BME280;8341;42.048;24.650;2024-03-02T04:44:48;96784.91;;;8.28;100.00
16461;BME280;8341;42.048;24.650;2024-03-02T04:47:15;96793.16;;;8.34;100.00
16461;BME280;8341;42.048;24.650;2024-03-02T04:49:42;96791.28;;;8.40;100.00
16461;BME280;8341;42.048;24.650;2024-03-02T04:52:09;96791.69;;;8.47;100.00
16461;BME280;8341;42.048;24.650;2024-03-02T04:54:36;96784.91;;;8.43;100.00
16461;BME280;8341;42.048;24.650;2024-03-02T04:57:24;96793.66;;;8.47;100.00
16461;BME280;8341;42.048;24.650;2024-03-02T04:59:51;96786.03;;;8.51;100.00
16461;BME280;8341;42.048;24.650;2024-03-02T05:02:18;96796.25;;;8.56;100.00
16461;BME280;8341;42.048;24.650;2024-03-02T05:04:45;96789.34;;;8.55;100.00
16461;BME280;8341;42.048;24.650;2024-03-02T05:07:14;96789.13;;;8.58;100.00
16461;BME280;8341;42.048;24.650;2024-03-02T05:09:41;96789.03;;;8.53;100.00
16461;BME280;8341;42.048;24.650;2024-03-02T05:12:08;96782.88;;;8.52;100.00
16461;BME280;8341;42.048;24.650;2024-03-02T05:15:02;96795.59;;;8.61;100.00
16461;BME280;8341;42.048;24.650;2024-03-02T05:17:29;96793.81;;;8.58;100.00
16461;BME280;8341;42.048;24.650;2024-03-02T05:19:56;96803.38;;;8.68;100.00
16461;BME280;8341;42.048;24.650;2024-03-02T05:22:23;96798.78;;;8.74;100.00
16461;BME280;8341;42.048;24.650;2024-03-02T05:24:50;96807.22;;;8.76;100.00
16461;BME280;8341;42.048;24.650;2024-03-02T05:27:16;96810.41;;;8.74;100.00
16461;BME280;8341;42.048;24.650;2024-03-02T05:29:43;96815.66;;;8.78;100.00
16461;BME280;8341;42.048;24.650;2024-03-02T05:32:12;96815.28;;;8.85;100.00
16461;BME280;8341;42.048;24.650;2024-03-02T05:34:39;96818.44;;;8.83;100.00
16461;BME280;8341;42.048;24.650;2024-03-02T05:37:06;96821.94;;;8.84;100.00
16461;BME280;8341;42.048;24.650;2024-03-02T05:39:33;96819.78;;;8.88;100.00
16461;BME280;8341;42.048;24.650;2024-03-02T05:41:59;96816.56;;;8.90;100.00
16461;BME280;8341;42.048;24.650;2024-03-02T05:44:26;96819.56;;;8.92;100.00
16461;BME280;8341;42.048;24.650;2024-03-02T05:46:53;96830.25;;;8.95;100.00
16461;BME280;8341;42.048;24.650;2024-03-02T05:49:21;96829.34;;;8.98;100.00
16461;BME280;8341;42.048;24.650;2024-03-02T05:51:48;96825.38;;;8.99;100.00
16461;BME280;8341;42.048;24.650;2024-03-02T05:54:15;96831.56;;;9.00;100.00
16461;BME280;8341;42.048;24.650;2024-03-02T05:56:42;96829.13;;;9.02;100.00
16461;BME280;8341;42.048;24.650;2024-03-02T05:59:09;96836.81;;;9.03;100.00
16461;BME280;8341;42.048;24.650;2024-03-02T06:01:39;96827.91;;;9.03;100.00
16461;BME280;8341;42.048;24.650;2024-03-02T06:04:06;96821.25;;;9.04;100.00
16461;BME280;8341;42.048;24.650;2024-03-02T06:06:34;96828.19;;;9.05;100.00
16461;BME280;8341;42.048;24.650;2024-03-02T06:09:01;96825.94;;;9.03;100.00
16461;BME280;8341;42.048;24.650;2024-03-02T06:11:31;96822.97;;;9.01;100.00
16461;BME280;8341;42.048;24.650;2024-03-02T06:13:57;96825.00;;;9.06;100.00
16461;BME280;8341;42.048;24.650;2024-03-02T06:16:24;96825.81;;;9.12;100.00
16461;BME280;8341;42.048;24.650;2024-03-02T06:18:51;96811.69;;;9.08;100.00
16461;BME280;8341;42.048;24.650;2024-03-02T06:21:19;96823.78;;;9.07;100.00
16461;BME280;8341;42.048;24.650;2024-03-02T06:23:48;96826.31;;;9.11;100.00
16461;BME280;8341;42.048;24.650;2024-03-02T06:26:15;96824.34;;;9.11;100.00
16461;BME280;8341;42.048;24.650;2024-03-02T06:28:42;96822.84;;;9.10;100.00
16461;BME280;8341;42.048;24.650;2024-03-02T06:31:09;96829.84;;;9.17;100.00
16461;BME280;8341;42.048;24.650;2024-03-02T06:33:36;96834.91;;;9.09;100.00
16461;BME280;8341;42.048;24.650;2024-03-02T06:36:04;96841.56;;;9.23;100.00
16461;BME280;8341;42.048;24.650;2024-03-02T06:38:34;96834.44;;;9.25;100.00
16461;BME280;8341;42.048;24.650;2024-03-02T06:41:02;96840.53;;;9.20;100.00
16461;BME280;8341;42.048;24.650;2024-03-02T06:43:29;96844.38;;;9.28;100.00
16461;BME280;8341;42.048;24.650;2024-03-02T06:45:56;96848.13;;;9.31;100.00
16461;BME280;8341;42.048;24.650;2024-03-02T06:48:23;96846.28;;;9.42;100.00
16461;BME280;8341;42.048;24.650;2024-03-02T06:50:50;96835.88;;;9.06;100.00
16461;BME280;8341;42.048;24.650;2024-03-02T06:53:17;96833.91;;;8.63;100.00
16461;BME280;8341;42.048;24.650;2024-03-02T06:55:45;96850.88;;;8.58;100.00
16461;BME280;8341;42.048;24.650;2024-03-02T06:58:14;96846.59;;;8.51;100.00
16461;BME280;8341;42.048;24.650;2024-03-02T07:00:42;96833.06;;;8.28;100.00
16461;BME280;8341;42.048;24.650;2024-03-02T07:03:09;96857.59;;;8.33;100.00
16461;BME280;8341;42.048;24.650;2024-03-02T07:05:36;96850.50;;;8.36;100.00
16461;BME280;8341;42.048;24.650;2024-03-02T07:08:03;96865.97;;;8.20;100.00
16461;BME280;8341;42.048;24.650;2024-03-02T07:10:31;96863.03;;;8.09;100.00
16461;BME280;8341;42.048;24.650;2024-03-02T07:12:58;96860.56;;;8.20;100.00
16461;BME280;8341;42.048;24.650;2024-03-02T07:15:26;96865.00;;;8.09;100.00
16461;BME280;8341;42.048;24.650;2024-03-02T07:18:10;96858.47;;;8.15;100.00
16461;BME280;8341;42.048;24.650;2024-03-02T07:20:37;96859.56;;;8.09;100.00
16461;BME280;8341;42.048;24.650;2024-03-02T07:23:04;96865.34;;;8.26;100.00
16461;BME280;8341;42.048;24.650;2024-03-02T07:25:32;96850.63;;;8.17;100.00
16461;BME280;8341;42.048;24.650;2024-03-02T07:27:59;96855.38;;;8.32;100.00
16461;BME280;8341;42.048;24.650;2024-03-02T07:30:27;96863.75;;;8.19;100.00
16461;BME280;8341;42.048;24.650;2024-03-02T07:32:54;96854.97;;;8.24;100.00
16461;BME280;8341;42.048;24.650;2024-03-02T07:35:21;96862.50;;;8.20;100.00
16461;BME280;8341;42.048;24.650;2024-03-02T07:37:52;96866.16;;;8.17;100.00
16461;BME280;8341;42.048;24.650;2024-03-02T07:40:19;96870.50;;;8.24;100.00
16461;BME280;8341;42.048;24.650;2024-03-02T07:42:46;96868.16;;;7.93;100.00
16461;BME280;8341;42.048;24.650;2024-03-02T07:45:13;96872.56;;;7.90;100.00
16461;BME280;8341;42.048;24.650;2024-03-02T07:47:42;96875.47;;;8.01;100.00
16461;BME280;8341;42.048;24.650;2024-03-02T07:50:09;96873.06;;;8.03;100.00
16461;BME280;8341;42.048;24.650;2024-03-02T07:52:36;96871.03;;;8.13;100.00
16461;BME280;8341;42.048;24.650;2024-03-02T07:55:03;96874.25;;;8.26;100.00
16461;BME280;8341;42.048;24.650;2024-03-02T07:57:31;96873.66;;;8.46;100.00
16461;BME280;8341;42.048;24.650;2024-03-02T07:59:58;96878.81;;;8.44;100.00
16461;BME280;8341;42.048;24.650;2024-03-02T08:02:25;96877.13;;;8.46;100.00
16461;BME280;8341;42.048;24.650;2024-03-02T08:04:53;96879.66;;;8.50;100.00
16461;BME280;8341;42.048;24.650;2024-03-02T08:07:20;96868.53;;;8.62;100.00
16461;BME280;8341;42.048;24.650;2024-03-02T08:09:47;96879.41;;;8.77;100.00
16461;BME280;8341;42.048;24.650;2024-03-02T08:12:14;96874.63;;;8.72;100.00
16461;BME280;8341;42.048;24.650;2024-03-02T08:14:41;96880.53;;;8.85;100.00
16461;BME280;8341;42.048;24.650;2024-03-02T08:17:08;96882.00;;;8.86;100.00
16461;BME280;8341;42.048;24.650;2024-03-02T08:19:36;96882.97;;;8.83;100.00
16461;BME280;8341;42.048;24.650;2024-03-02T08:22:05;96899.63;;;8.61;100.00
16461;BME280;8341;42.048;24.650;2024-03-02T08:24:32;96899.41;;;8.50;100.00
16461;BME280;8341;42.048;24.650;2024-03-02T08:26:59;96896.78;;;8.41;100.00
16461;BME280;8341;42.048;24.650;2024-03-02T08:29:26;96894.09;;;8.56;100.00
16461;BME280;8341;42.048;24.650;2024-03-02T08:31:54;96892.50;;;8.64;100.00
16461;BME280;8341;42.048;24.650;2024-03-02T08:34:21;96868.53;;;8.92;100.00
16461;BME280;8341;42.048;24.650;2024-03-02T08:36:48;96860.38;;;9.06;100.00
16461;BME280;8341;42.048;24.650;2024-03-02T08:39:16;96843.44;;;9.17;100.00
16461;BME280;8341;42.048;24.650;2024-03-02T08:41:45;96829.03;;;8.96;100.00
16461;BME280;8341;42.048;24.650;2024-03-02T08:44:13;96836.03;;;9.17;100.00
16461;BME280;8341;42.048;24.650;2024-03-02T08:46:40;96868.69;;;9.32;100.00
16461;BME280;8341;42.048;24.650;2024-03-02T08:49:07;96872.34;;;9.14;100.00
16461;BME280;8341;42.048;24.650;2024-03-02T08:51:34;96872.53;;;8.96;100.00
16461;BME280;8341;42.048;24.650;2024-03-02T08:54:01;96856.53;;;8.98;100.00
16461;BME280;8341;42.048;24.650;2024-03-02T08:56:31;96870.47;;;8.91;100.00
16461;BME280;8341;42.048;24.650;2024-03-02T08:58:58;96873.47;;;9.08;100.00
16461;BME280;8341;42.048;24.650;2024-03-02T09:01:25;96866.63;;;9.27;100.00
16461;BME280;8341;42.048;24.650;2024-03-02T09:03:52;96872.44;;;9.34;100.00
16461;BME280;8341;42.048;24.650;2024-03-02T09:06:19;96861.47;;;9.00;100.00
16461;BME280;8341;42.048;24.650;2024-03-02T09:08:46;96864.13;;;8.65;100.00
16461;BME280;8341;42.048;24.650;2024-03-02T09:11:15;96855.22;;;8.50;100.00
16461;BME280;8341;42.048;24.650;2024-03-02T09:13:43;96861.69;;;8.67;100.00
16461;BME280;8341;42.048;24.650;2024-03-02T09:16:10;96871.69;;;8.61;100.00
16461;BME280;8341;42.048;24.650;2024-03-02T09:18:37;96873.59;;;8.55;100.00
16461;BME280;8341;42.048;24.650;2024-03-02T09:21:04;96866.47;;;8.72;100.00
16461;BME280;8341;42.048;24.650;2024-03-02T09:23:32;96875.16;;;8.76;100.00
16461;BME280;8341;42.048;24.650;2024-03-02T09:25:59;96880.91;;;8.78;100.00
16461;BME280;8341;42.048;24.650;2024-03-02T09:28:26;96886.88;;;8.53;100.00
16461;BME280;8341;42.048;24.650;2024-03-02T09:30:54;96882.41;;;8.79;100.00
16461;BME280;8341;42.048;24.650;2024-03-02T09:33:21;96893.09;;;8.97;100.00
16461;BME280;8341;42.048;24.650;2024-03-02T09:35:48;96885.59;;;8.77;100.00
16461;BME280;8341;42.048;24.650;2024-03-02T09:38:15;96886.16;;;8.67;100.00
16461;BME280;8341;42.048;24.650;2024-03-02T09:40:42;96889.31;;;8.51;100.00
16461;BME280;8341;42.048;24.650;2024-03-02T09:43:10;96887.81;;;8.50;100.00
16461;BME280;8341;42.048;24.650;2024-03-02T09:45:37;96885.56;;;8.63;100.00
16461;BME280;8341;42.048;24.650;2024-03-02T09:48:07;96874.63;;;8.72;100.00
16461;BME280;8341;42.048;24.650;2024-03-02T09:50:34;96870.28;;;8.65;100.00
16461;BME280;8341;42.048;24.650;2024-03-02T09:53:01;96879.28;;;8.57;100.00
16461;BME280;8341;42.048;24.650;2024-03-02T09:55:28;96870.75;;;8.64;100.00
16461;BME280;8341;42.048;24.650;2024-03-02T09:57:55;96882.56;;;8.61;100.00
16461;BME280;8341;42.048;24.650;2024-03-02T10:00:22;96886.03;;;8.76;100.00
16461;BME280;8341;42.048;24.650;2024-03-02T10:02:50;96883.63;;;8.78;100.00
16461;BME280;8341;42.048;24.650;2024-03-02T10:05:27;96887.28;;;8.75;100.00
16461;BME280;8341;42.048;24.650;2024-03-02T10:08:01;96886.41;;;8.69;100.00
16461;BME280;8341;42.048;24.650;2024-03-02T10:10:36;96880.16;;;8.77;100.00
16461;BME280;8341;42.048;24.650;2024-03-02T10:13:06;96887.44;;;8.86;100.00
16461;BME280;8341;42.048;24.650;2024-03-02T10:15:34;96884.19;;;9.11;100.00
16461;BME280;8341;42.048;24.650;2024-03-02T10:18:02;96877.88;;;9.34;100.00
16461;BME280;8341;42.048;24.650;2024-03-02T10:20:30;96877.47;;;9.41;100.00
16461;BME280;8341;42.048;24.650;2024-03-02T10:23:11;96877.25;;;9.60;100.00
16461;BME280;8341;42.048;24.650;2024-03-02T10:25:38;96876.16;;;9.72;100.00
16461;BME280;8341;42.048;24.650;2024-03-02T10:28:05;96872.56;;;9.80;100.00
16461;BME280;8341;42.048;24.650;2024-03-02T10:30:33;96861.59;;;9.75;100.00
16461;BME280;8341;42.048;24.650;2024-03-02T10:33:00;96863.09;;;9.76;100.00
16461;BME280;8341;42.048;24.650;2024-03-02T10:35:28;96865.81;;;9.76;100.00
16461;BME280;8341;42.048;24.650;2024-03-02T10:37:58;96860.50;;;9.87;100.00
16461;BME280;8341;42.048;24.650;2024-03-02T10:40:26;96862.44;;;10.01;100.00
16461;BME280;8341;42.048;24.650;2024-03-02T10:42:53;96865.00;;;10.10;100.00
16461;BME280;8341;42.048;24.650;2024-03-02T10:45:21;96850.53;;;10.19;100.00
16461;BME280;8341;42.048;24.650;2024-03-02T10:47:49;96854.06;;;10.25;100.00
16461;BME280;8341;42.048;24.650;2024-03-02T10:50:17;96852.91;;;10.31;100.00
16461;BME280;8341;42.048;24.650;2024-03-02T10:52:44;96851.41;;;10.30;100.00
16461;BME280;8341;42.048;24.650;2024-03-02T10:55:13;96846.81;;;10.01;100.00
16461;BME280;8341;42.048;24.650;2024-03-02T10:57:50;96846.34;;;9.63;100.00
16461;BME280;8341;42.048;24.650;2024-03-02T11:00:19;96844.09;;;9.26;100.00
16461;BME280;8341;42.048;24.650;2024-03-02T11:02:51;96848.25;;;9.07;100.00
16461;BME280;8341;42.048;24.650;2024-03-02T11:05:28;96838.97;;;8.99;100.00
16461;BME280;8341;42.048;24.650;2024-03-02T11:08:00;96833.84;;;9.01;100.00
16461;BME280;8341;42.048;24.650;2024-03-02T11:10:34;96831.38;;;9.03;100.00
16461;BME280;8341;42.048;24.650;2024-03-02T11:13:05;96844.09;;;9.12;100.00
16461;BME280;8341;42.048;24.650;2024-03-02T11:15:35;96829.75;;;9.26;100.00
16461;BME280;8341;42.048;24.650;2024-03-02T11:18:04;96844.16;;;9.47;100.00
16461;BME280;8341;42.048;24.650;2024-03-02T11:20:36;96838.19;;;9.63;100.00
16461;BME280;8341;42.048;24.650;2024-03-02T11:23:07;96834.91;;;9.79;100.00
16461;BME280;8341;42.048;24.650;2024-03-02T11:25:35;96830.91;;;9.94;100.00
16461;BME280;8341;42.048;24.650;2024-03-02T11:28:04;96830.00;;;10.03;100.00
16461;BME280;8341;42.048;24.650;2024-03-02T11:30:50;96825.00;;;10.16;100.00
16461;BME280;8341;42.048;24.650;2024-03-02T11:33:25;96832.22;;;10.19;100.00
16461;BME280;8341;42.048;24.650;2024-03-02T11:35:56;96827.16;;;10.32;100.00
16461;BME280;8341;42.048;24.650;2024-03-02T11:38:28;96828.50;;;10.42;100.00
16461;BME280;8341;42.048;24.650;2024-03-02T11:40:57;96823.09;;;10.48;100.00
16461;BME280;8341;42.048;24.650;2024-03-02T11:43:26;96819.44;;;10.56;100.00
16461;BME280;8341;42.048;24.650;2024-03-02T11:45:57;96830.91;;;10.60;100.00
16461;BME280;8341;42.048;24.650;2024-03-02T11:48:25;96825.78;;;10.68;100.00
16461;BME280;8341;42.048;24.650;2024-03-02T11:50:52;96821.59;;;10.73;100.00
16461;BME280;8341;42.048;24.650;2024-03-02T11:53:22;96823.94;;;10.59;100.00
16461;BME280;8341;42.048;24.650;2024-03-02T11:55:50;96821.47;;;10.61;100.00
16461;BME280;8341;42.048;24.650;2024-03-02T11:58:20;96826.94;;;10.61;100.00
16461;BME280;8341;42.048;24.650;2024-03-02T12:00:50;96818.50;;;10.59;100.00
16461;BME280;8341;42.048;24.650;2024-03-02T12:03:17;96826.34;;;10.52;100.00
16461;BME280;8341;42.048;24.650;2024-03-02T12:05:48;96816.16;;;10.47;100.00
16461;BME280;8341;42.048;24.650;2024-03-02T12:08:16;96817.31;;;10.40;100.00
16461;BME280;8341;42.048;24.650;2024-03-02T12:10:55;96815.13;;;10.44;100.00
16461;BME280;8341;42.048;24.650;2024-03-02T12:13:24;96816.66;;;10.51;100.00
16461;BME280;8341;42.048;24.650;2024-03-02T12:15:53;96809.03;;;10.55;100.00
16461;BME280;8341;42.048;24.650;2024-03-02T12:18:21;96799.66;;;10.61;100.00
16461;BME280;8341;42.048;24.650;2024-03-02T12:20:49;96808.31;;;10.86;100.00
16461;BME280;8341;42.048;24.650;2024-03-02T12:23:18;96809.38;;;10.94;100.00
16461;BME280;8341;42.048;24.650;2024-03-02T12:25:45;96811.69;;;11.06;100.00
16461;BME280;8341;42.048;24.650;2024-03-02T12:28:12;96805.09;;;11.18;100.00
16461;BME280;8341;42.048;24.650;2024-03-02T12:30:41;96810.84;;;11.26;100.00
16461;BME280;8341;42.048;24.650;2024-03-02T12:33:11;96807.91;;;10.98;100.00
16461;BME280;8341;42.048;24.650;2024-03-02T12:35:38;96811.22;;;11.08;100.00
16461;BME280;8341;42.048;24.650;2024-03-02T12:38:06;96800.50;;;10.99;100.00
16461;BME280;8341;42.048;24.650;2024-03-02T12:40:34;96802.94;;;10.97;100.00
16461;BME280;8341;42.048;24.650;2024-03-02T12:43:02;96806.59;;;11.19;100.00
16461;BME280;8341;42.048;24.650;2024-03-02T12:45:29;96806.47;;;11.03;100.00
16461;BME280;8341;42.048;24.650;2024-03-02T12:48:00;96799.59;;;11.13;100.00
16461;BME280;8341;42.048;24.650;2024-03-02T12:50:27;96800.50;;;11.04;100.00
16461;BME280;8341;42.048;24.650;2024-03-02T12:52:54;96800.28;;;10.77;100.00
16461;BME280;8341;42.048;24.650;2024-03-02T12:55:22;96796.88;;;10.82;100.00
16461;BME280;8341;42.048;24.650;2024-03-02T12:57:49;96797.34;;;10.80;100.00
16461;BME280;8341;42.048;24.650;2024-03-02T13:00:18;96795.22;;;10.64;100.00
16461;BME280;8341;42.048;24.650;2024-03-02T13:02:46;96796.53;;;10.43;100.00